createdAt,value
2022-12-25T00:01:41.241Z,66.36
2022-12-25T00:04:09.076Z,62.63
2022-12-25T00:06:37.157Z,57.86
2022-12-25T00:09:05.130Z,56.03
2022-12-25T00:11:33.033Z,56.65
2022-12-25T00:14:00.730Z,57.64
2022-12-25T00:16:28.550Z,58.97
2022-12-25T00:18:58.998Z,60.26
2022-12-25T00:21:27.705Z,61.35
2022-12-25T00:23:57.505Z,65.22
2022-12-25T00:26:27.088Z,66.20
2022-12-25T00:28:56.351Z,62.08
2022-12-25T00:31:25.264Z,58.56
2022-12-25T00:33:53.557Z,56.51
2022-12-25T00:36:22.293Z,57.03
2022-12-25T00:38:50.278Z,58.46
2022-12-25T00:41:41.200Z,60.11
2022-12-25T00:44:11.069Z,64.62
2022-12-25T00:46:38.864Z,64.43
2022-12-25T00:49:07.040Z,62.57
2022-12-25T00:51:34.854Z,57.87
2022-12-25T00:54:02.945Z,56.24
2022-12-25T00:56:30.796Z,57.72
2022-12-25T00:58:58.558Z,59.49
2022-12-25T01:01:26.492Z,60.24
2022-12-25T01:03:55.269Z,61.27
2022-12-25T01:06:23.163Z,64.59
2022-12-25T01:09:09.780Z,66.43
2022-12-25T01:11:37.578Z,63.53
2022-12-25T01:14:05.340Z,60.39
2022-12-25T01:16:33.448Z,56.82
2022-12-25T01:19:01.820Z,56.32
2022-12-25T01:21:30.156Z,57.75
2022-12-25T01:23:58.153Z,59.02
2022-12-25T01:26:27.211Z,60.21
2022-12-25T01:28:55.204Z,60.95
2022-12-25T01:31:24.558Z,64.50
2022-12-25T01:33:52.807Z,66.07
2022-12-25T01:36:25.683Z,61.82
2022-12-25T01:38:54.285Z,56.36
2022-12-25T01:41:24.069Z,55.11
2022-12-25T01:43:59.462Z,56.06
2022-12-25T01:46:27.468Z,57.25
2022-12-25T01:48:57.237Z,58.76
2022-12-25T01:51:29.788Z,59.93
2022-12-25T01:54:00.543Z,60.38
2022-12-25T01:56:29.019Z,61.18
2022-12-25T01:58:57.441Z,64.66
2022-12-25T02:01:25.520Z,65.40
2022-12-25T02:03:59.280Z,61.22
2022-12-25T02:06:30.636Z,57.27
2022-12-25T02:08:59.241Z,55.58
2022-12-25T02:11:45.814Z,56.68
2022-12-25T02:14:13.675Z,57.58
2022-12-25T02:16:57.879Z,59.09
2022-12-25T02:20:10.047Z,59.72
2022-12-25T02:23:11.699Z,59.54
2022-12-25T02:25:53.548Z,60.23
2022-12-25T02:28:26.242Z,61.02
2022-12-25T02:31:03.275Z,61.64
2022-12-25T02:33:57.646Z,65.94
2022-12-25T02:36:28.342Z,64.59
2022-12-25T02:39:17.551Z,59.17
2022-12-25T02:41:47.792Z,53.64
2022-12-25T02:44:37.238Z,53.50
2022-12-25T02:47:25.822Z,54.76
2022-12-25T02:50:13.326Z,56.55
2022-12-25T02:53:01.624Z,57.50
2022-12-25T02:55:52.787Z,58.33
2022-12-25T02:58:40.861Z,59.00
2022-12-25T03:01:33.909Z,59.71
2022-12-25T03:04:24.732Z,59.79
2022-12-25T03:07:14.738Z,60.52
2022-12-25T03:10:06.337Z,61.22
2022-12-25T03:12:50.768Z,61.59
2022-12-25T03:15:38.162Z,67.32
2022-12-25T03:18:10.367Z,66.95
2022-12-25T03:20:56.903Z,61.84
2022-12-25T03:23:47.981Z,56.50
2022-12-25T03:26:35.092Z,52.40
2022-12-25T03:29:03.318Z,52.98
2022-12-25T03:36:09.416Z,54.77
2022-12-25T03:39:13.604Z,56.05
2022-12-25T03:42:20.837Z,56.76
2022-12-25T03:45:38.087Z,57.59
2022-12-25T03:48:27.884Z,58.22
2022-12-25T03:51:22.241Z,59.18
2022-12-25T03:54:13.872Z,59.72
2022-12-25T03:57:01.629Z,60.09
2022-12-25T03:59:48.112Z,60.77
2022-12-25T04:02:34.541Z,61.23
2022-12-25T04:05:21.357Z,61.67
2022-12-25T04:08:07.768Z,66.34
2022-12-25T04:10:54.269Z,66.03
2022-12-25T04:13:40.895Z,58.99
2022-12-25T04:16:27.482Z,52.27
2022-12-25T04:19:14.139Z,52.79
2022-12-25T04:22:00.691Z,54.30
2022-12-25T04:24:47.240Z,55.07
2022-12-25T04:27:33.797Z,56.41
2022-12-25T04:30:20.395Z,57.79
2022-12-25T04:33:06.878Z,58.68
2022-12-25T04:35:53.240Z,59.14
2022-12-25T04:38:22.291Z,59.56
2022-12-25T04:40:50.007Z,60.29
2022-12-25T04:43:17.717Z,60.81
2022-12-25T04:45:53.293Z,61.51
2022-12-25T04:48:21.198Z,65.75
2022-12-25T04:50:49.090Z,66.34
2022-12-25T04:53:17.957Z,59.92
2022-12-25T04:55:45.756Z,52.74
2022-12-25T04:58:14.094Z,52.19
2022-12-25T05:00:42.025Z,53.62
2022-12-25T05:03:10.049Z,54.56
2022-12-25T05:05:40.468Z,55.39
2022-12-25T05:08:08.435Z,56.37
2022-12-25T05:10:39.947Z,56.92
2022-12-25T05:13:07.636Z,57.42
2022-12-25T05:15:35.435Z,58.24
2022-12-25T05:18:03.433Z,58.57
2022-12-25T05:20:34.827Z,59.48
2022-12-25T05:23:10.777Z,60.85
2022-12-25T05:25:40.462Z,61.53
2022-12-25T05:28:08.195Z,61.99
2022-12-25T05:30:36.006Z,66.15
2022-12-25T05:33:04.028Z,66.05
2022-12-25T05:35:32.114Z,60.62
2022-12-25T05:37:59.816Z,54.04
2022-12-25T05:40:27.722Z,52.88
2022-12-25T05:42:55.446Z,54.03
2022-12-25T05:45:23.157Z,55.45
2022-12-25T05:47:50.906Z,56.01
2022-12-25T05:50:18.675Z,57.00
2022-12-25T05:52:46.391Z,57.67
2022-12-25T05:55:14.196Z,58.08
2022-12-25T05:57:41.913Z,58.09
2022-12-25T06:00:10.381Z,58.94
2022-12-25T06:02:41.160Z,59.38
2022-12-25T06:05:09.940Z,59.72
2022-12-25T06:07:37.672Z,60.39
2022-12-25T06:10:06.648Z,60.67
2022-12-25T06:12:34.543Z,61.12
2022-12-25T06:15:02.519Z,61.78
2022-12-25T06:17:30.258Z,65.56
2022-12-25T06:19:58.386Z,67.08
2022-12-25T06:22:30.757Z,60.89
2022-12-25T06:24:59.098Z,54.26
2022-12-25T06:27:28.386Z,52.53
2022-12-25T06:29:56.159Z,53.68
2022-12-25T06:32:23.860Z,54.32
2022-12-25T06:34:51.623Z,55.01
2022-12-25T06:37:19.871Z,56.10
2022-12-25T06:39:48.442Z,57.12
2022-12-25T06:42:16.294Z,57.91
2022-12-25T06:44:44.833Z,58.60
2022-12-25T06:47:12.610Z,58.75
2022-12-25T06:49:40.423Z,59.30
2022-12-25T06:52:08.234Z,59.53
2022-12-25T06:54:35.982Z,59.97
2022-12-25T06:57:03.790Z,60.43
2022-12-25T06:59:31.484Z,60.96
2022-12-25T07:01:59.596Z,61.44
2022-12-25T07:04:35.748Z,61.80
2022-12-25T07:07:09.005Z,66.15
2022-12-25T07:09:39.342Z,65.97
2022-12-25T07:12:19.829Z,59.56
2022-12-25T07:14:50.542Z,52.51
2022-12-25T07:17:19.805Z,51.65
2022-12-25T07:19:48.208Z,52.89
2022-12-25T07:22:16.829Z,54.15
2022-12-25T07:24:44.636Z,55.14
2022-12-25T07:27:12.557Z,55.52
2022-12-25T07:29:40.389Z,56.18
2022-12-25T07:32:08.436Z,56.81
2022-12-25T07:34:36.274Z,57.64
2022-12-25T07:37:04.064Z,58.69
2022-12-25T07:39:31.916Z,59.26
2022-12-25T07:41:59.649Z,59.76
2022-12-25T07:44:28.847Z,60.44
2022-12-25T07:46:56.938Z,60.76
2022-12-25T07:49:24.689Z,60.98
2022-12-25T07:51:52.424Z,61.55
2022-12-25T07:54:20.864Z,62.01
2022-12-25T07:56:52.576Z,66.24
2022-12-25T07:59:20.633Z,66.38
2022-12-25T08:01:50.465Z,58.71
2022-12-25T08:04:18.612Z,52.66
2022-12-25T08:06:46.522Z,52.79
2022-12-25T08:09:14.283Z,53.85
2022-12-25T08:11:46.673Z,54.80
2022-12-25T08:14:14.709Z,55.86
2022-12-25T08:16:42.644Z,56.83
2022-12-25T08:19:11.267Z,57.98
2022-12-25T08:21:39.181Z,58.12
2022-12-25T08:24:07.178Z,58.58
2022-12-25T08:26:34.870Z,59.49
2022-12-25T08:29:02.724Z,59.43
2022-12-25T08:31:31.062Z,60.14
2022-12-25T08:33:59.786Z,60.88
2022-12-25T08:36:27.607Z,60.89
2022-12-25T08:39:02.071Z,65.97
2022-12-25T08:41:31.766Z,65.04
2022-12-25T08:43:59.500Z,60.25
2022-12-25T08:46:27.273Z,53.50
2022-12-25T08:48:56.796Z,52.46
2022-12-25T08:51:26.043Z,53.45
2022-12-25T08:53:59.323Z,54.45
2022-12-25T08:56:27.171Z,55.35
2022-12-25T08:58:54.938Z,56.61
2022-12-25T09:01:22.868Z,57.09
2022-12-25T09:03:50.779Z,57.68
2022-12-25T09:06:18.748Z,58.32
2022-12-25T09:08:49.487Z,58.78
2022-12-25T09:11:19.948Z,58.06
2022-12-25T09:13:49.133Z,58.72
2022-12-25T09:16:20.579Z,59.55
2022-12-25T09:18:49.474Z,59.83
2022-12-25T09:21:17.919Z,60.11
2022-12-25T09:23:45.709Z,60.35
2022-12-25T09:26:15.768Z,60.24
2022-12-25T09:28:50.607Z,60.57
2022-12-25T09:31:21.512Z,61.19
2022-12-25T09:33:50.816Z,61.84
2022-12-25T09:36:18.715Z,61.88
2022-12-25T09:38:46.517Z,61.92
2022-12-25T09:41:23.713Z,62.65
2022-12-25T09:43:56.141Z,64.64
2022-12-25T09:46:33.060Z,59.70
2022-12-25T09:49:13.143Z,52.40
2022-12-25T09:51:44.463Z,51.24
2022-12-25T09:54:35.155Z,51.79
2022-12-25T09:57:03.663Z,52.31
2022-12-25T09:59:31.462Z,52.98
2022-12-25T10:02:06.310Z,53.44
2022-12-25T10:04:47.640Z,53.49
2022-12-25T10:07:37.322Z,53.44
2022-12-25T10:10:23.585Z,53.40
2022-12-25T10:12:51.440Z,53.25
2022-12-25T10:15:39.226Z,53.20
2022-12-25T10:18:22.150Z,53.04
2022-12-25T10:20:55.057Z,53.09
2022-12-25T10:23:26.488Z,53.08
2022-12-25T10:25:54.932Z,52.64
2022-12-25T10:28:30.596Z,52.55
2022-12-25T10:31:02.407Z,52.19
2022-12-25T10:33:31.086Z,51.55
2022-12-25T10:36:00.083Z,51.43
2022-12-25T10:38:27.973Z,51.20
2022-12-25T10:41:20.966Z,51.25
2022-12-25T10:43:54.823Z,51.05
2022-12-25T10:46:24.948Z,52.50
2022-12-25T10:48:58.036Z,51.61
2022-12-25T10:51:33.708Z,50.82
2022-12-25T10:54:19.799Z,51.03
2022-12-25T10:56:54.559Z,51.52
2022-12-25T10:59:23.344Z,51.41
2022-12-25T11:01:55.139Z,51.81
2022-12-25T11:04:28.686Z,51.23
2022-12-25T11:07:14.234Z,51.46
2022-12-25T11:09:49.837Z,51.20
2022-12-25T11:12:20.084Z,51.13
2022-12-25T11:14:57.146Z,51.39
2022-12-25T11:17:25.933Z,50.86
2022-12-25T11:19:58.622Z,51.04
2022-12-25T11:22:28.893Z,50.95
2022-12-25T11:24:56.627Z,51.23
2022-12-25T11:27:28.008Z,51.77
2022-12-25T11:29:59.271Z,50.53
2022-12-25T11:32:30.735Z,50.19
2022-12-25T11:34:59.289Z,50.54
2022-12-25T11:37:38.568Z,50.36
2022-12-25T11:40:13.083Z,50.11
2022-12-25T11:42:45.386Z,50.11
2022-12-25T11:45:24.713Z,50.05
2022-12-25T11:48:16.145Z,50.06
2022-12-25T11:50:48.150Z,49.99
2022-12-25T11:53:19.040Z,49.74
2022-12-25T11:55:54.817Z,49.79
2022-12-25T11:58:45.210Z,49.51
2022-12-25T12:01:30.480Z,48.87
2022-12-25T12:04:01.097Z,49.00
2022-12-25T12:06:48.090Z,49.06
2022-12-25T12:09:31.183Z,48.93
2022-12-25T12:12:08.601Z,48.76
2022-12-25T12:15:03.961Z,48.77
2022-12-25T12:17:32.158Z,49.24
2022-12-25T12:20:13.831Z,48.38
2022-12-25T12:22:49.112Z,48.08
2022-12-25T12:25:18.707Z,47.57
2022-12-25T12:27:54.848Z,47.32
2022-12-25T12:30:31.486Z,46.45
2022-12-25T12:33:01.845Z,46.77
2022-12-25T12:35:35.745Z,47.37
2022-12-25T12:38:18.347Z,45.88
2022-12-25T12:40:57.313Z,46.54
2022-12-25T12:43:30.256Z,45.91
2022-12-25T12:46:06.481Z,44.66
2022-12-25T12:48:41.523Z,44.87
2022-12-25T12:51:34.160Z,44.91
2022-12-25T12:54:24.313Z,44.74
2022-12-25T12:57:23.006Z,44.92
2022-12-25T12:59:50.780Z,45.73
2022-12-25T13:02:46.772Z,45.34
2022-12-25T13:05:34.955Z,45.38
2022-12-25T13:08:41.808Z,45.39
2022-12-25T13:11:20.608Z,46.29
2022-12-25T13:13:50.690Z,46.90
2022-12-25T13:16:31.967Z,47.73
2022-12-25T13:19:04.477Z,48.32
2022-12-25T13:21:33.156Z,48.95
2022-12-25T13:24:03.154Z,49.38
2022-12-25T13:26:31.126Z,50.05
2022-12-25T13:28:59.078Z,50.60
2022-12-25T13:31:28.836Z,51.09
2022-12-25T13:33:59.973Z,51.41
2022-12-25T13:36:29.815Z,51.96
2022-12-25T13:38:58.621Z,52.18
2022-12-25T13:41:51.567Z,52.03
2022-12-25T13:44:26.723Z,51.18
2022-12-25T13:46:54.528Z,50.76
2022-12-25T13:49:24.361Z,50.06
2022-12-25T13:51:52.117Z,50.09
2022-12-25T13:54:19.904Z,50.55
2022-12-25T13:56:50.761Z,50.53
2022-12-25T13:59:21.528Z,51.00
2022-12-25T14:01:50.240Z,51.26
2022-12-25T14:04:21.450Z,51.69
2022-12-25T14:06:50.058Z,52.23
2022-12-25T14:09:18.468Z,52.65
2022-12-25T14:11:50.020Z,53.04
2022-12-25T14:14:22.708Z,53.29
2022-12-25T14:16:53.465Z,53.83
2022-12-25T14:19:26.349Z,54.35
2022-12-25T14:22:05.175Z,54.80
2022-12-25T14:24:34.235Z,55.06
2022-12-25T14:27:04.751Z,55.63
2022-12-25T14:29:39.657Z,55.80
2022-12-25T14:32:08.242Z,56.05
2022-12-25T14:34:36.040Z,56.53
2022-12-25T14:37:04.274Z,57.01
2022-12-25T14:39:38.648Z,57.34
2022-12-25T14:42:16.900Z,57.67
2022-12-25T14:44:56.994Z,57.98
2022-12-25T14:47:26.054Z,58.67
2022-12-25T14:49:54.695Z,58.95
2022-12-25T14:52:27.067Z,59.53
2022-12-25T14:55:03.476Z,59.71
2022-12-25T14:57:38.122Z,60.14
2022-12-25T15:00:23.674Z,60.63
2022-12-25T15:02:53.642Z,61.21
2022-12-25T15:05:29.601Z,61.74
2022-12-25T15:08:06.951Z,65.20
2022-12-25T15:13:24.388Z,62.64
2022-12-25T15:16:14.717Z,57.46
2022-12-25T15:18:44.662Z,55.42
2022-12-25T15:21:33.461Z,56.37
2022-12-25T15:24:01.723Z,57.36
2022-12-25T15:26:30.961Z,58.34
2022-12-25T15:28:58.912Z,59.20
2022-12-25T15:31:31.635Z,59.99
2022-12-25T15:34:01.882Z,60.90
2022-12-25T15:36:29.838Z,61.79
2022-12-25T15:38:57.892Z,65.54
2022-12-25T15:41:49.274Z,66.01
2022-12-25T15:44:17.558Z,61.25
2022-12-25T15:46:49.027Z,55.95
2022-12-25T15:49:17.165Z,55.08
2022-12-25T15:51:45.985Z,56.66
2022-12-25T15:54:13.925Z,58.24
2022-12-25T15:56:44.259Z,59.03
2022-12-25T15:59:13.525Z,59.94
2022-12-25T16:01:50.359Z,60.55
2022-12-25T16:04:20.814Z,61.91
2022-12-25T16:06:49.262Z,65.78
2022-12-25T16:09:18.147Z,64.77
2022-12-25T16:11:46.712Z,61.56
2022-12-25T16:14:15.042Z,57.14
2022-12-25T16:16:42.851Z,55.86
2022-12-25T16:19:10.684Z,57.04
2022-12-25T16:21:41.614Z,58.01
2022-12-25T16:24:09.849Z,59.00
2022-12-25T16:26:37.718Z,60.38
2022-12-25T16:29:07.418Z,64.26
2022-12-25T16:31:36.858Z,64.87
2022-12-25T16:34:05.510Z,60.63
2022-12-25T16:36:33.926Z,55.39
2022-12-25T16:39:02.831Z,53.95
2022-12-25T16:41:30.753Z,54.86
2022-12-25T16:43:58.567Z,56.46
2022-12-25T16:46:26.389Z,57.68
2022-12-25T16:48:55.277Z,58.66
2022-12-25T16:51:23.634Z,59.35
2022-12-25T16:53:53.209Z,60.73
2022-12-25T16:56:25.675Z,61.72
2022-12-25T16:58:54.058Z,65.25
2022-12-25T17:01:23.126Z,64.91
2022-12-25T17:03:52.021Z,61.02
2022-12-25T17:06:24.868Z,55.18
2022-12-25T17:08:55.515Z,54.67
2022-12-25T17:11:27.285Z,55.89
2022-12-25T17:13:56.463Z,56.84
2022-12-25T17:16:27.053Z,57.49
2022-12-25T17:18:56.671Z,58.41
2022-12-25T17:21:26.733Z,59.74
2022-12-25T17:24:01.642Z,60.52
2022-12-25T17:26:32.870Z,60.77
2022-12-25T17:29:01.285Z,64.97
2022-12-25T17:31:29.576Z,64.55
2022-12-25T17:33:57.735Z,60.05
2022-12-25T17:36:25.790Z,55.97
2022-12-25T17:38:55.420Z,56.19
2022-12-25T17:41:24.115Z,57.48
2022-12-25T17:43:52.124Z,58.83
2022-12-25T17:46:22.307Z,59.81
2022-12-25T17:48:52.574Z,60.55
2022-12-25T17:51:23.232Z,61.48
2022-12-25T17:53:56.861Z,65.90
2022-12-25T17:56:25.560Z,65.64
2022-12-25T17:58:56.632Z,60.05
2022-12-25T18:01:26.412Z,55.60
2022-12-25T18:03:55.105Z,54.63
2022-12-25T18:06:26.192Z,56.51
2022-12-25T18:08:55.203Z,57.50
2022-12-25T18:11:27.634Z,59.01
2022-12-25T18:13:58.048Z,60.02
2022-12-25T18:16:27.274Z,61.01
2022-12-25T18:18:55.203Z,65.14
2022-12-25T18:21:23.738Z,65.42
2022-12-25T18:23:52.029Z,60.76
2022-12-25T18:26:20.417Z,55.11
2022-12-25T18:28:49.567Z,54.63
2022-12-25T18:31:20.785Z,56.34
2022-12-25T18:33:49.708Z,57.27
2022-12-25T18:36:20.744Z,59.50
2022-12-25T18:38:50.121Z,59.66
2022-12-25T18:41:18.269Z,60.39
2022-12-25T18:43:53.880Z,61.11
2022-12-25T18:46:25.381Z,66.23
2022-12-25T18:48:57.104Z,66.02
2022-12-25T18:51:27.725Z,61.23
2022-12-25T18:56:17.549Z,55.20
2022-12-25T18:58:47.177Z,56.13
2022-12-25T19:01:19.306Z,58.55
2022-12-25T19:03:49.524Z,58.28
2022-12-25T19:06:19.969Z,59.66
2022-12-25T19:08:48.370Z,60.62
2022-12-25T19:11:16.661Z,61.18
2022-12-25T19:13:44.679Z,65.73
2022-12-25T19:16:12.854Z,66.04
2022-12-25T19:18:40.838Z,61.69
2022-12-25T19:21:10.123Z,55.89
2022-12-25T19:23:38.748Z,54.54
2022-12-25T19:26:08.333Z,56.28
2022-12-25T19:28:37.650Z,58.06
2022-12-25T19:31:07.754Z,58.81
2022-12-25T19:33:36.982Z,59.80
2022-12-25T19:36:08.185Z,60.95
2022-12-25T19:38:36.282Z,63.35
2022-12-25T19:41:12.647Z,66.67
2022-12-25T19:43:41.619Z,63.42
2022-12-25T19:46:23.954Z,58.46
2022-12-25T19:48:52.441Z,56.64
2022-12-25T19:51:27.201Z,58.04
2022-12-25T19:53:58.234Z,59.02
2022-12-25T19:56:27.922Z,60.13
2022-12-25T19:58:56.787Z,62.23
2022-12-25T20:01:27.040Z,66.14
2022-12-25T20:03:55.396Z,64.65
2022-12-25T20:06:29.611Z,62.24
2022-12-25T20:09:01.239Z,59.98
2022-12-25T20:11:30.234Z,56.10
2022-12-25T20:13:58.766Z,56.31
2022-12-25T20:16:26.868Z,57.60
2022-12-25T20:18:55.886Z,59.16
2022-12-25T20:21:24.456Z,60.19
2022-12-25T20:23:54.697Z,61.19
2022-12-25T20:26:25.378Z,65.20
2022-12-25T20:28:53.178Z,65.93
2022-12-25T20:31:30.023Z,61.49
2022-12-25T20:34:00.894Z,56.43
2022-12-25T20:36:36.099Z,55.70
2022-12-25T20:39:09.437Z,56.72
2022-12-25T20:41:38.902Z,58.60
2022-12-25T20:44:09.829Z,60.43
2022-12-25T20:46:37.706Z,61.16
2022-12-25T20:49:05.815Z,64.36
2022-12-25T20:51:33.610Z,65.29
2022-12-25T20:54:06.435Z,62.08
2022-12-25T20:56:34.461Z,56.86
2022-12-25T20:59:02.286Z,55.81
2022-12-25T21:01:31.887Z,57.18
2022-12-25T21:03:59.876Z,58.17
2022-12-25T21:06:27.805Z,59.77
2022-12-25T21:08:55.848Z,61.11
2022-12-25T21:11:23.633Z,64.72
2022-12-25T21:13:51.657Z,64.42
2022-12-25T21:16:22.115Z,60.85
2022-12-25T21:18:52.324Z,56.45
2022-12-25T21:21:21.188Z,55.73
2022-12-25T21:23:48.947Z,56.73
2022-12-25T21:26:24.920Z,58.13
2022-12-25T21:28:55.323Z,58.97
2022-12-25T21:31:24.382Z,60.33
2022-12-25T21:33:53.961Z,61.43
2022-12-25T21:36:30.123Z,64.74
2022-12-25T21:39:00.348Z,65.33
2022-12-25T21:41:30.162Z,61.61
2022-12-25T21:43:58.299Z,58.11
2022-12-25T21:46:26.545Z,56.87
2022-12-25T21:48:55.543Z,58.26
2022-12-25T21:51:48.293Z,59.87
2022-12-25T21:54:17.230Z,60.83
2022-12-25T21:56:47.027Z,61.53
2022-12-25T21:59:17.321Z,65.08
2022-12-25T22:01:45.912Z,66.21
2022-12-25T22:04:15.242Z,63.21
2022-12-25T22:07:02.074Z,58.13
2022-12-25T22:09:29.980Z,56.20
2022-12-25T22:12:17.342Z,57.38
2022-12-25T22:14:56.299Z,59.33
2022-12-25T22:17:45.811Z,60.64
2022-12-25T22:20:19.442Z,61.66
2022-12-25T22:22:48.035Z,66.33
2022-12-25T22:25:16.593Z,65.82
2022-12-25T22:27:45.697Z,63.79
2022-12-25T22:30:19.641Z,58.93
2022-12-25T22:32:48.141Z,55.79
2022-12-25T22:35:16.725Z,56.62
2022-12-25T22:37:45.284Z,58.20
2022-12-25T22:40:16.565Z,59.36
2022-12-25T22:42:44.417Z,60.71
2022-12-25T22:45:12.618Z,64.85
2022-12-25T22:47:41.067Z,65.91
2022-12-25T22:50:09.960Z,61.47
2022-12-25T22:52:38.125Z,56.68
2022-12-25T22:55:07.804Z,56.06
2022-12-25T22:57:36.229Z,57.98
2022-12-25T23:00:06.753Z,59.91
2022-12-25T23:02:35.217Z,61.33
2022-12-25T23:05:03.721Z,65.27
2022-12-25T23:07:31.582Z,65.27
2022-12-25T23:09:59.348Z,62.29
2022-12-25T23:12:45.788Z,60.44
2022-12-25T23:15:13.503Z,56.75
2022-12-25T23:18:00.306Z,56.45
2022-12-25T23:20:46.733Z,58.20
2022-12-25T23:23:34.832Z,59.41
2022-12-25T23:26:09.219Z,61.19
2022-12-25T23:28:57.386Z,65.01
2022-12-25T23:31:30.046Z,65.80
2022-12-25T23:33:58.243Z,63.67
2022-12-25T23:36:26.348Z,60.68
2022-12-25T23:38:54.523Z,58.66
2022-12-25T23:41:22.364Z,58.60
2022-12-25T23:43:50.346Z,59.68
2022-12-25T23:46:18.102Z,61.55
2022-12-25T23:48:46.022Z,64.80
2022-12-25T23:51:13.699Z,65.86
2022-12-25T23:53:41.478Z,63.55
2022-12-25T23:56:10.615Z,60.51
2022-12-25T23:58:38.435Z,57.48
